Wetterstation Vordersexau
Wetterdaten: Woche 30.12.13 - 05.01.14 (KW1)
Datum Zeit Temp. A. Feuchte A. Luftdruck Regen Wind Richtung Taupunkt Windchill Windben
30.12.2013 00:00 0,8 C 87 % 1025,3 hPa 0,0 l/m 0,0 km/h N-NO -1,1 C 0,8 C 0,0 km/h
30.12.2013 01:00 0,3 C 87 % 1025,2 hPa 0,0 l/m 0,0 km/h S -1,6 C 0,3 C 0,0 km/h
30.12.2013 02:00 -0,1 C 87 % 1026,0 hPa 0,0 l/m 0,0 km/h O-SO -2,0 C -0,1 C 0,0 km/h
30.12.2013 03:00 0,8 C 86 % 1026,1 hPa 0,0 l/m 0,0 km/h O-SO -1,3 C 0,8 C 0,0 km/h
30.12.2013 04:00 1,6 C 85 % 1026,2 hPa 0,0 l/m 0,0 km/h O-SO -0,6 C 1,6 C 0,0 km/h
30.12.2013 05:00 1,6 C 85 % 1025,7 hPa 0,0 l/m 0,0 km/h O-NO -0,6 C 1,6 C 0,0 km/h
30.12.2013 06:00 0,3 C 85 % 1025,5 hPa 0,0 l/m 0,0 km/h O -1,9 C 0,3 C 0,0 km/h
30.12.2013 07:00 0,2 C 84 % 1025,3 hPa 0,0 l/m 0,0 km/h O-SO -2,2 C 0,2 C 0,0 km/h
30.12.2013 08:00 -0,5 C 85 % 1025,3 hPa 0,0 l/m 0,0 km/h O-SO -2,7 C -0,5 C 0,0 km/h
30.12.2013 09:00 2,4 C 81 % 1025,3 hPa 0,0 l/m 0,0 km/h O-SO -0,5 C 2,4 C 0,0 km/h
30.12.2013 10:00 5,9 C 87 % 1025,2 hPa 0,0 l/m 0,0 km/h O-SO 3,9 C 5,9 C 0,0 km/h
30.12.2013 11:00 11,4 C 73 % 1025,3 hPa 0,0 l/m 0,0 km/h W-NW 6,7 C 11,4 C 0,0 km/h
30.12.2013 12:00 11,5 C 64 % 1024,1 hPa 0,0 l/m 0,0 km/h W 4,9 C 11,5 C 0,0 km/h
30.12.2013 13:00 10,4 C 65 % 1023,4 hPa 0,0 l/m 0,0 km/h W 4,1 C 10,4 C 0,0 km/h
30.12.2013 14:00 10,5 C 62 % 1022,7 hPa 0,0 l/m 1,9 km/h W 3,5 C 10,5 C 1,1 km/h
30.12.2013 15:00 8,4 C 70 % 1022,4 hPa 0,0 l/m 3,2 km/h W 3,3 C 8,4 C 1,8 km/h
30.12.2013 16:00 5,3 C 75 % 1022,5 hPa 0,0 l/m 0,0 km/h NO 1,2 C 5,3 C 0,0 km/h
30.12.2013 17:00 1,0 C 83 % 1022,1 hPa 0,0 l/m 0,0 km/h O -1,6 C 1,0 C 0,0 km/h
30.12.2013 18:00 -0,1 C 86 % 1022,1 hPa 0,0 l/m 0,0 km/h O -2,2 C -0,1 C 0,0 km/h
30.12.2013 19:00 -0,7 C 87 % 1022,1 hPa 0,0 l/m 0,0 km/h SO -2,6 C -0,7 C 0,0 km/h
30.12.2013 20:00 -1,1 C 87 % 1022,0 hPa 0,0 l/m 0,0 km/h NO -3,0 C -1,1 C 0,0 km/h
30.12.2013 21:00 -0,6 C 87 % 1022,0 hPa 0,0 l/m 0,0 km/h O-NO -2,5 C -0,6 C 0,0 km/h
30.12.2013 22:00 -0,5 C 87 % 1022,0 hPa 0,0 l/m 0,0 km/h O -2,4 C -0,5 C 0,0 km/h
30.12.2013 23:00 -0,2 C 86 % 1021,5 hPa 0,0 l/m 0,0 km/h O -2,3 C -0,2 C 0,0 km/h
31.12.2013 00:00 -0,4 C 86 % 1021,3 hPa 0,0 l/m 0,0 km/h O -2,4 C -0,4 C 0,0 km/h
31.12.2013 01:00 -0,4 C 86 % 1021,0 hPa 0,0 l/m 0,0 km/h N -2,4 C -0,4 C 0,0 km/h
31.12.2013 02:00 -0,2 C 86 % 1020,5 hPa 0,0 l/m 0,0 km/h N -2,3 C -0,2 C 0,0 km/h
31.12.2013 03:00 -0,1 C 86 % 1020,2 hPa 0,0 l/m 0,0 km/h N-NO -2,2 C -0,1 C 0,0 km/h
31.12.2013 04:00 -0,2 C 86 % 1019,5 hPa 0,0 l/m 0,0 km/h N-NO -2,3 C -0,2 C 0,0 km/h
31.12.2013 05:00 -0,5 C 86 % 1019,0 hPa 0,0 l/m 0,0 km/h N-NO -2,5 C -0,5 C 0,0 km/h
31.12.2013 06:00 -0,2 C 86 % 1018,5 hPa 0,0 l/m 0,0 km/h N-NO -2,3 C -0,2 C 0,0 km/h
31.12.2013 07:00 -1,2 C 86 % 1017,9 hPa 0,0 l/m 0,0 km/h N-NO -3,2 C -1,2 C 0,0 km/h
31.12.2013 08:00 -2,0 C 86 % 1017,8 hPa 0,0 l/m 0,0 km/h N-NO -4,0 C -2,0 C 0,0 km/h
31.12.2013 09:00 2,6 C 82 % 1017,8 hPa 0,0 l/m 0,0 km/h N-NO -0,2 C 2,6 C 0,0 km/h
31.12.2013 10:00 7,7 C 79 % 1017,7 hPa 0,0 l/m 0,0 km/h W-NW 4,3 C 7,7 C 0,0 km/h
31.12.2013 11:00 8,5 C 68 % 1017,0 hPa 0,0 l/m 0,0 km/h W-NW 2,9 C 8,5 C 0,0 km/h
31.12.2013 12:00 10,5 C 61 % 1015,8 hPa 0,0 l/m 0,0 km/h W 3,3 C 10,5 C 0,0 km/h
31.12.2013 13:00 10,1 C 61 % 1015,2 hPa 0,0 l/m 0,0 km/h W 2,9 C 10,1 C 0,0 km/h
31.12.2013 14:00 10,3 C 61 % 1014,2 hPa 0,0 l/m 0,0 km/h W-NW 3,1 C 10,3 C 0,0 km/h
31.12.2013 15:00 10,4 C 59 % 1013,8 hPa 0,0 l/m 0,0 km/h W-NW 2,7 C 10,4 C 0,0 km/h
31.12.2013 16:00 5,2 C 68 % 1013,2 hPa 0,0 l/m 0,0 km/h W-NW -0,2 C 5,2 C 0,0 km/h
31.12.2013 17:00 1,6 C 80 % 1012,3 hPa 0,0 l/m 0,0 km/h W -1,5 C 1,6 C 0,0 km/h
31.12.2013 18:00 -0,1 C 84 % 1012,6 hPa 0,0 l/m 0,0 km/h O -2,5 C -0,1 C 0,0 km/h
31.12.2013 19:00 -0,5 C 86 % 1012,3 hPa 0,0 l/m 0,0 km/h O -2,5 C -0,5 C 0,0 km/h
31.12.2013 20:00 -0,6 C 86 % 1012,3 hPa 0,0 l/m 0,0 km/h O -2,6 C -0,6 C 0,0 km/h
31.12.2013 21:00 -0,9 C 87 % 1012,4 hPa 0,0 l/m 0,0 km/h O -2,8 C -0,9 C 0,0 km/h
31.12.2013 22:00 -1,5 C 87 % 1012,3 hPa 0,0 l/m 0,0 km/h SO -3,4 C -1,5 C 0,0 km/h
31.12.2013 23:00 -1,6 C 87 % 1012,6 hPa 0,0 l/m 0,0 km/h SO -3,5 C -1,6 C 0,0 km/h
01.01.2014 00:00 -1,4 C 87 % 1012,9 hPa 0,0 l/m 0,0 km/h O-SO -3,3 C -1,4 C 0,0 km/h
01.01.2014 01:00 -0,2 C 87 % 1012,8 hPa 0,0 l/m 1,3 km/h N-NO -2,1 C -0,2 C 0,7 km/h
01.01.2014 02:00 0,1 C 87 % 1013,2 hPa 0,0 l/m 1,3 km/h SO -1,8 C 0,1 C 0,7 km/h
01.01.2014 03:00 5,8 C 78 % 1013,1 hPa 0,0 l/m 27,2 km/h S 2,3 C -4,5 C 15,1 km/h
01.01.2014 04:00 5,8 C 79 % 1013,6 hPa 0,0 l/m 0,0 km/h NO 2,4 C 5,8 C 0,0 km/h
01.01.2014 05:00 4,5 C 84 % 1013,1 hPa 0,5 l/m 0,0 km/h O-SO 2,0 C 4,5 C 0,0 km/h
01.01.2014 06:00 4,3 C 86 % 1012,9 hPa 0,0 l/m 0,0 km/h O-SO 2,2 C 4,3 C 0,0 km/h
01.01.2014 07:00 4,6 C 86 % 1013,1 hPa 0,0 l/m 0,0 km/h W-NW 2,5 C 4,6 C 0,0 km/h
01.01.2014 08:00 5,1 C 86 % 1013,2 hPa 0,5 l/m 0,0 km/h N-NO 3,0 C 5,1 C 0,0 km/h
01.01.2014 09:00 4,6 C 86 % 1013,3 hPa 0,0 l/m 0,0 km/h N-NO 2,5 C 4,6 C 0,0 km/h
01.01.2014 10:00 6,7 C 86 % 1013,3 hPa 0,0 l/m 0,0 km/h S-SW 4,5 C 6,7 C 0,0 km/h
01.01.2014 11:00 9,3 C 81 % 1012,8 hPa 0,0 l/m 10,4 km/h SW 6,2 C 6,6 C 5,8 km/h
01.01.2014 12:00 14,8 C 64 % 1011,5 hPa 0,0 l/m 1,9 km/h S 8,1 C 14,8 C 1,1 km/h
01.01.2014 13:00 13,9 C 62 % 1010,7 hPa 0,0 l/m 3,9 km/h SW 6,7 C 13,9 C 2,2 km/h
01.01.2014 14:00 14,4 C 59 % 1009,9 hPa 0,0 l/m 0,0 km/h SO 6,5 C 14,4 C 0,0 km/h
01.01.2014 15:00 15,9 C 57 % 1009,4 hPa 0,0 l/m 0,0 km/h SO 7,4 C 15,9 C 0,0 km/h
01.01.2014 16:00 10,9 C 66 % 1009,4 hPa 0,0 l/m 0,0 km/h O-NO 4,8 C 10,9 C 0,0 km/h
01.01.2014 17:00 5,9 C 80 % 1008,6 hPa 0,0 l/m 0,0 km/h SO 2,7 C 5,9 C 0,0 km/h
01.01.2014 18:00 5,9 C 83 % 1007,9 hPa 0,0 l/m 1,3 km/h O-SO 3,2 C 5,9 C 0,7 km/h
01.01.2014 19:00 6,6 C 82 % 1007,4 hPa 0,0 l/m 8,4 km/h SO 3,8 C 5,0 C 4,7 km/h
01.01.2014 20:00 8,8 C 73 % 1006,8 hPa 0,0 l/m 3,2 km/h SO 4,2 C 8,8 C 1,8 km/h
01.01.2014 21:00 8,5 C 71 % 1006,2 hPa 0,0 l/m 11,0 km/h SO 3,5 C 5,3 C 6,1 km/h
01.01.2014 22:00 8,1 C 72 % 1006,1 hPa 0,0 l/m 4,5 km/h O-NO 3,4 C 8,1 C 2,5 km/h
01.01.2014 23:00 6,9 C 74 % 1005,1 hPa 0,0 l/m 0,0 km/h O-NO 2,6 C 6,9 C 0,0 km/h
02.01.2014 00:00 6,4 C 80 % 1004,3 hPa 0,0 l/m 0,0 km/h N-NO 3,2 C 6,4 C 0,0 km/h
02.01.2014 01:00 6,1 C 80 % 1003,5 hPa 0,0 l/m 0,0 km/h NO 2,9 C 6,1 C 0,0 km/h
02.01.2014 02:00 4,5 C 83 % 1003,7 hPa 0,0 l/m 0,0 km/h N-NO 1,9 C 4,5 C 0,0 km/h
02.01.2014 03:00 5,3 C 84 % 1003,7 hPa 0,0 l/m 0,0 km/h SW 2,8 C 5,3 C 0,0 km/h
02.01.2014 04:00 7,1 C 84 % 1004,1 hPa 0,0 l/m 1,3 km/h SO 4,6 C 7,1 C 0,7 km/h
02.01.2014 05:00 7,3 C 85 % 1003,4 hPa 0,5 l/m 2,6 km/h N-NO 4,9 C 7,3 C 1,4 km/h
02.01.2014 06:00 6,6 C 86 % 1003,6 hPa 1,0 l/m 0,0 km/h S 4,4 C 6,6 C 0,0 km/h
02.01.2014 07:00 6,8 C 86 % 1004,5 hPa 1,0 l/m 0,0 km/h SO 4,6 C 6,8 C 0,0 km/h
02.01.2014 08:00 7,0 C 86 % 1004,0 hPa 1,0 l/m 8,4 km/h S 4,8 C 5,4 C 4,7 km/h
02.01.2014 09:00 8,4 C 85 % 1003,7 hPa 0,0 l/m 6,5 km/h S 6,0 C 8,3 C 3,6 km/h
02.01.2014 10:00 9,7 C 80 % 1004,2 hPa 0,0 l/m 19,4 km/h S-SW 6,4 C 3,1 C 10,8 km/h
02.01.2014 11:00 10,1 C 77 % 1005,0 hPa 0,5 l/m 29,2 km/h SW 6,3 C 1,0 C 16,2 km/h
02.01.2014 12:00 10,9 C 75 % 1004,8 hPa 0,0 l/m 26,6 km/h S-SW 6,6 C 2,7 C 14,8 km/h
02.01.2014 13:00 8,9 C 81 % 1005,3 hPa 0,0 l/m 22,0 km/h SO 5,8 C 1,2 C 12,2 km/h
02.01.2014 14:00 9,4 C 81 % 1005,4 hPa 0,0 l/m 0,0 km/h S-SW 6,3 C 9,4 C 0,0 km/h
02.01.2014 15:00 7,5 C 86 % 1006,7 hPa 4,1 l/m 10,4 km/h S-SO 5,3 C 4,6 C 5,8 km/h
02.01.2014 16:00 7,8 C 86 % 1007,2 hPa 0,0 l/m 1,9 km/h N-NO 5,6 C 7,8 C 1,1 km/h
02.01.2014 17:00 6,8 C 86 % 1007,9 hPa 0,0 l/m 0,0 km/h S-SW 4,6 C 6,8 C 0,0 km/h
02.01.2014 18:00 7,1 C 86 % 1008,4 hPa 0,0 l/m 10,4 km/h S-SO 4,9 C 4,1 C 5,8 km/h
02.01.2014 19:00 6,9 C 85 % 1008,6 hPa 0,0 l/m 0,0 km/h S 4,6 C 6,9 C 0,0 km/h
02.01.2014 20:00 7,2 C 84 % 1009,2 hPa 0,0 l/m 0,0 km/h S-SO 4,7 C 7,2 C 0,0 km/h
02.01.2014 21:00 8,1 C 83 % 1009,2 hPa 0,0 l/m 16,2 km/h N-NO 5,4 C 2,3 C 9,0 km/h
02.01.2014 22:00 7,1 C 84 % 1009,5 hPa 0,0 l/m 0,0 km/h O-NO 4,6 C 7,1 C 0,0 km/h
02.01.2014 23:00 6,4 C 86 % 1009,4 hPa 0,0 l/m 0,0 km/h O 4,2 C 6,4 C 0,0 km/h
03.01.2014 00:00 5,5 C 86 % 1009,2 hPa 0,0 l/m 0,0 km/h O-NO 3,3 C 5,5 C 0,0 km/h
03.01.2014 01:00 5,9 C 85 % 1009,1 hPa 0,0 l/m 0,0 km/h O 3,6 C 5,9 C 0,0 km/h
03.01.2014 02:00 4,8 C 85 % 1009,0 hPa 0,0 l/m 0,0 km/h O-SO 2,5 C 4,8 C 0,0 km/h
03.01.2014 03:00 4,3 C 85 % 1009,3 hPa 0,0 l/m 0,0 km/h NO 2,0 C 4,3 C 0,0 km/h
03.01.2014 04:00 3,8 C 84 % 1008,7 hPa 0,0 l/m 0,0 km/h O-SO 1,4 C 3,8 C 0,0 km/h
03.01.2014 05:00 4,3 C 83 % 1008,4 hPa 0,0 l/m 0,0 km/h NO 1,7 C 4,3 C 0,0 km/h
03.01.2014 06:00 3,3 C 85 % 1008,1 hPa 0,0 l/m 0,0 km/h O-NO 1,0 C 3,3 C 0,0 km/h
03.01.2014 07:00 3,2 C 84 % 1008,2 hPa 0,0 l/m 0,0 km/h O-NO 0,8 C 3,2 C 0,0 km/h
03.01.2014 08:00 3,5 C 83 % 1008,1 hPa 0,0 l/m 0,0 km/h O-SO 0,9 C 3,5 C 0,0 km/h
03.01.2014 09:00 4,7 C 83 % 1008,4 hPa 0,0 l/m 0,0 km/h SO 2,1 C 4,7 C 0,0 km/h
03.01.2014 10:00 6,1 C 85 % 1009,5 hPa 0,0 l/m 1,9 km/h S 3,8 C 6,1 C 1,1 km/h
03.01.2014 11:00 7,5 C 86 % 1010,3 hPa 1,0 l/m 0,0 km/h N-NO 5,3 C 7,5 C 0,0 km/h
03.01.2014 12:00 7,4 C 86 % 1010,0 hPa 1,0 l/m 0,0 km/h N-NO 5,2 C 7,4 C 0,0 km/h
03.01.2014 13:00 9,4 C 86 % 1010,0 hPa 0,0 l/m 1,3 km/h S-SW 7,2 C 9,4 C 0,7 km/h
03.01.2014 14:00 11,9 C 80 % 1009,6 hPa 0,0 l/m 0,0 km/h W-SW 8,6 C 11,9 C 0,0 km/h
03.01.2014 15:00 10,7 C 80 % 1010,0 hPa 0,0 l/m 0,0 km/h SO 7,4 C 10,7 C 0,0 km/h
03.01.2014 16:00 9,6 C 83 % 1010,9 hPa 0,0 l/m 0,0 km/h O-SO 6,9 C 9,6 C 0,0 km/h
03.01.2014 17:00 9,3 C 84 % 1010,7 hPa 0,0 l/m 0,0 km/h N-NO 6,7 C 9,3 C 0,0 km/h
03.01.2014 18:00 9,3 C 86 % 1011,0 hPa 0,0 l/m 0,0 km/h O 7,1 C 9,3 C 0,0 km/h
03.01.2014 19:00 8,4 C 86 % 1011,6 hPa 0,0 l/m 0,0 km/h S-SW 6,2 C 8,4 C 0,0 km/h
03.01.2014 20:00 11,9 C 78 % 1012,3 hPa 0,0 l/m 31,8 km/h W-SW 8,2 C 3,0 C 17,6 km/h
03.01.2014 21:00 11,9 C 76 % 1013,2 hPa 0,0 l/m 25,9 km/h S-SW 7,8 C 4,2 C 14,4 km/h
03.01.2014 22:00 11,9 C 75 % 1013,3 hPa 0,5 l/m 22,7 km/h W 7,6 C 5,0 C 12,6 km/h
03.01.2014 23:00 11,5 C 75 % 1013,5 hPa 0,0 l/m 23,3 km/h S-SW 7,2 C 4,3 C 13,0 km/h
04.01.2014 00:00 10,3 C 78 % 1013,3 hPa 0,0 l/m 3,9 km/h S-SW 6,6 C 10,3 C 2,2 km/h
04.01.2014 01:00 9,9 C 81 % 1013,3 hPa 0,0 l/m 13,0 km/h S 6,8 C 5,9 C 7,2 km/h
04.01.2014 02:00 8,3 C 83 % 1012,8 hPa 0,0 l/m 0,0 km/h N-NO 5,6 C 8,3 C 0,0 km/h
04.01.2014 03:00 7,2 C 85 % 1012,4 hPa 0,0 l/m 2,6 km/h O-NO 4,9 C 7,2 C 1,4 km/h
04.01.2014 04:00 6,1 C 87 % 1011,4 hPa 0,0 l/m 0,0 km/h O-NO 4,1 C 6,1 C 0,0 km/h
04.01.2014 05:00 5,3 C 86 % 1010,2 hPa 0,0 l/m 0,0 km/h O-SO 3,2 C 5,3 C 0,0 km/h
04.01.2014 06:00 5,3 C 86 % 1009,6 hPa 0,0 l/m 2,6 km/h O-SO 3,2 C 5,3 C 1,4 km/h
04.01.2014 07:00 5,5 C 86 % 1008,7 hPa 0,0 l/m 0,6 km/h O-NO 3,3 C 5,5 C 0,4 km/h
04.01.2014 08:00 6,1 C 86 % 1007,9 hPa 0,0 l/m 0,0 km/h SO 3,9 C 6,1 C 0,0 km/h
04.01.2014 09:00 6,5 C 86 % 1007,5 hPa 0,5 l/m 0,0 km/h O-NO 4,3 C 6,5 C 0,0 km/h
04.01.2014 10:00 6,7 C 85 % 1006,1 hPa 1,6 l/m 0,0 km/h W-NW 4,4 C 6,7 C 0,0 km/h
04.01.2014 11:00 7,3 C 84 % 1005,2 hPa 0,5 l/m 0,0 km/h N-NO 4,8 C 7,3 C 0,0 km/h
04.01.2014 12:00 7,6 C 83 % 1003,4 hPa 1,6 l/m 0,0 km/h W-SW 4,9 C 7,6 C 0,0 km/h
04.01.2014 13:00 8,2 C 83 % 1002,2 hPa 0,5 l/m 5,8 km/h S-SW 5,5 C 8,2 C 3,2 km/h
04.01.2014 14:00 7,6 C 82 % 1001,3 hPa 0,0 l/m 0,0 km/h O-SO 4,7 C 7,6 C 0,0 km/h
04.01.2014 15:00 7,5 C 83 % 999,9 hPa 0,0 l/m 0,0 km/h W-NW 4,8 C 7,5 C 0,0 km/h
04.01.2014 16:00 7,3 C 82 % 1000,2 hPa 0,0 l/m 0,0 km/h N-NO 4,4 C 7,3 C 0,0 km/h
04.01.2014 17:00 7,4 C 80 % 999,1 hPa 0,5 l/m 0,0 km/h S-SW 4,2 C 7,4 C 0,0 km/h
04.01.2014 18:00 6,5 C 80 % 999,2 hPa 0,0 l/m 0,0 km/h N-NO 3,3 C 6,5 C 0,0 km/h
04.01.2014 19:00 6,2 C 80 % 998,7 hPa 0,0 l/m 0,0 km/h SO 3,0 C 6,2 C 0,0 km/h
04.01.2014 20:00 4,8 C 80 % 998,6 hPa 0,0 l/m 0,0 km/h NO 1,6 C 4,8 C 0,0 km/h
04.01.2014 21:00 4,2 C 80 % 998,1 hPa 0,0 l/m 0,0 km/h O-NO 1,1 C 4,2 C 0,0 km/h
04.01.2014 22:00 4,4 C 79 % 997,6 hPa 0,0 l/m 0,0 km/h NO 1,1 C 4,4 C 0,0 km/h
04.01.2014 23:00 4,1 C 78 % 997,2 hPa 0,0 l/m 1,9 km/h O-SO 0,6 C 4,1 C 1,1 km/h
05.01.2014 00:00 4,8 C 77 % 997,2 hPa 0,0 l/m 3,9 km/h O-SO 1,1 C 4,8 C 2,2 km/h
05.01.2014 01:00 4,9 C 76 % 998,3 hPa 0,0 l/m 9,1 km/h S 1,0 C 2,6 C 5,0 km/h
05.01.2014 02:00 5,6 C 75 % 1000,0 hPa 0,5 l/m 7,1 km/h W 1,5 C 5,0 C 4,0 km/h
05.01.2014 03:00 5,8 C 83 % 1002,2 hPa 0,5 l/m 28,5 km/h W-SW 3,1 C -4,9 C 15,8 km/h
05.01.2014 04:00 4,8 C 85 % 1003,4 hPa 0,5 l/m 14,9 km/h W 2,5 C -1,1 C 8,3 km/h
05.01.2014 05:00 4,8 C 86 % 1004,0 hPa 0,0 l/m 5,8 km/h SW 2,7 C 4,8 C 3,2 km/h
05.01.2014 06:00 5,2 C 87 % 1004,8 hPa 0,0 l/m 16,2 km/h SW 3,2 C -1,3 C 9,0 km/h
05.01.2014 07:00 5,2 C 86 % 1005,7 hPa 0,0 l/m 25,3 km/h W 3,1 C -4,8 C 14,0 km/h
05.01.2014 08:00 5,8 C 87 % 1007,0 hPa 0,0 l/m 8,4 km/h SW 3,8 C 4,1 C 4,7 km/h
05.01.2014 09:00 5,8 C 87 % 1008,1 hPa 0,0 l/m 22,7 km/h W-SW 3,8 C -3,1 C 12,6 km/h
05.01.2014 10:00 6,1 C 86 % 1009,2 hPa 0,0 l/m 11,0 km/h SW 3,9 C 2,6 C 6,1 km/h
05.01.2014 11:00 6,7 C 85 % 1009,6 hPa 0,0 l/m 26,6 km/h W-SW 4,4 C -3,1 C 14,8 km/h
05.01.2014 12:00 9,7 C 74 % 1009,6 hPa 0,0 l/m 22,7 km/h S 5,3 C 2,1 C 12,6 km/h
05.01.2014 13:00 9,4 C 68 % 1009,8 hPa 0,0 l/m 16,8 km/h W-SW 3,8 C 3,7 C 9,4 km/h
05.01.2014 14:00 8,9 C 68 % 1010,6 hPa 0,0 l/m 20,1 km/h S-SW 3,3 C 1,8 C 11,2 km/h
05.01.2014 15:00 9,3 C 72 % 1011,0 hPa 0,0 l/m 12,3 km/h SW 4,5 C 5,6 C 6,8 km/h
05.01.2014 16:00 8,4 C 67 % 1011,8 hPa 0,0 l/m 0,0 km/h O-SO 2,6 C 8,4 C 0,0 km/h
05.01.2014 17:00 4,2 C 79 % 1012,3 hPa 0,0 l/m 0,0 km/h NO 0,9 C 4,2 C 0,0 km/h
05.01.2014 18:00 2,2 C 84 % 1012,9 hPa 0,0 l/m 0,0 km/h O -0,2 C 2,2 C 0,0 km/h
05.01.2014 19:00 1,5 C 86 % 1013,6 hPa 0,0 l/m 0,0 km/h NO -0,6 C 1,5 C 0,0 km/h
05.01.2014 20:00 0,7 C 87 % 1013,3 hPa 0,0 l/m 0,0 km/h O-NO -1,2 C 0,7 C 0,0 km/h
05.01.2014 21:00 0,4 C 87 % 1012,8 hPa 0,0 l/m 0,0 km/h O-SO -1,5 C 0,4 C 0,0 km/h
05.01.2014 22:00 0,2 C 87 % 1012,7 hPa 0,0 l/m 2,6 km/h O-NO -1,7 C 0,2 C 1,4 km/h
05.01.2014 23:00 0,1 C 86 % 1013,1 hPa 0,0 l/m 0,0 km/h NO -2,0 C 0,1 C 0,0 km/h
Min-Datum _ 31.12.13 01.01.14 04.01.14 - 30.12.13 - 31.12.13 05.01.14 30.12.13
_ Min-Zeit 08:19 15:19 23:19 - 00:19 - 08:19 03:19 00:19
Minimum _ -2,0 C 57 % 997,2 hPa - 0,0 km/h - -4,0 C -4,9 C 0,0 km/h
Max-Datum _ 01.01.14 30.12.13 30.12.13 02.01.14 03.01.14 - 03.01.14 01.01.14 03.01.14
_ Max-Zeit 15:19 00:19 04:19 15:19 20:19 - 14:19 15:19 20:19
Maximum _ 15,9 C 87 % 1026,2 hPa 4,1 l/m 31,8 km/h
W-SW
- 8,6 C 15,9 C 17,6 km/h
W-SW
Durchschnitt _ 5,6 C 81 % 1011,4 hPa #18,6 l/m 3,7 km/h N-NO 2,5 C 4,5 C 2,1 km/h
www.sexauwetter.de